Tatvan, Turkey

6:29 AM EEST on September 20, 2014 (GMT +0300)
Mus Air Base | Change Station
CLOSE
Current Station
Airport
Location: Mus,
Elevation: 4154 ft
Nearby Weather Stations

Elev 4154 ft 38.75 °N, 41.66 °E | Updated 39 minutes ago

Clear
Clear
48 °F
Feels Like 48 °F
N
5
Wind Variable Wind from Variable

Today
High -- | Low -- °F
--% Chance of Precip.
Yesterday
High -- | Low -- °F
Precip. -- in
5:56 AM 6:11 PM
Waning Crescent, 15% visible
Pressure 30.01 in
Visibility -9999.0 miles
Clouds
Dew Point 34 °F
Humidity 58%
Rainfall 0.00 in
Snow Depth Not available.
UV Not available.
Pollen Not available.
Air Quality Not available.
Flu Activity Not available.
METAR LTCK 200250Z VRB04KT CAVOK 09/01 Q1016

More Conditions Fewer Conditions

Pressure 30.01 in
Visibility -9999.0 miles
Clouds
Dew Point 34 °F
Humidity 58%
Rainfall 0.00 in
Snow Depth Not available.
UV Not available.
Pollen Not available.
Air Quality Not available.
Flu Activity Not available.
METAR LTCK 200250Z VRB04KT CAVOK 09/01 Q1016

More Conditions Fewer Conditions

10-Day Weather Forecast

Almanac

Astronomy

Sep. 20, 2014 Rise Set
Actual Time 5:56 AM EEST 6:11 PM EEST
Civil Twilight 5:29 AM EEST 6:37 PM EEST
Nautical Twilight 4:58 AM EEST 7:08 PM EEST
Astronomical Twilight 4:27 AM EEST 7:40 PM EEST
Moon 2:17 AM EEST 4:00 PM EEST
Length of Visible Light 13h 08m
Length of Day
12h 15m
Tomorrow will be 2m 29s shorter.
Waning Crescent, 15% of the Moon is Illuminated
Sep 19
Waning Crescent
Sep 24
New
Oct 1
First Quarter
Oct 8
Full
Oct 15
Last Quarter

Yesterday's Extremes

Country Highs Country Lows

Community

WunderPhotos

Upload Photos

1,754,776 photos uploaded!

WunderBlogs® & News

Nearby

Snow Depth

Not available.

Earthquake Activity

City Distance Mag. Time & Date
No recent earthquake activity has been reported nearby.
Minimum magnitude displayed is 2.5.

Coastal Water Temperatures

Place Temperature
No Stations Reporting

Nearby Weather Stations